sensor_id;sensor_type;location;lat;lon;timestamp;pressure;altitude;pressure_sealevel;temperature;humidity
69980;BME280;57318;56.232;43.944;2023-01-28T00:01:14;99713.03;;;-3.46;87.16
69980;BME280;57318;56.232;43.944;2023-01-28T00:03:40;99707.78;;;-3.42;87.60
69980;BME280;57318;56.232;43.944;2023-01-28T00:06:08;99708.56;;;-3.39;87.48
69980;BME280;57318;56.232;43.944;2023-01-28T00:08:34;99718.09;;;-3.38;87.61
69980;BME280;57318;56.232;43.944;2023-01-28T00:11:01;99714.47;;;-3.31;87.47
69980;BME280;57318;56.232;43.944;2023-01-28T00:13:27;99710.97;;;-3.28;87.34
69980;BME280;57318;56.232;43.944;2023-01-28T00:15:56;99725.53;;;-3.21;87.49
69980;BME280;57318;56.232;43.944;2023-01-28T00:18:22;99722.03;;;-3.18;87.42
69980;BME280;57318;56.232;43.944;2023-01-28T00:23:30;99730.59;;;-3.13;87.39
69980;BME280;57318;56.232;43.944;2023-01-28T00:25:58;99735.75;;;-3.12;87.13
69980;BME280;57318;56.232;43.944;2023-01-28T00:28:24;99734.84;;;-3.09;86.94
69980;BME280;57318;56.232;43.944;2023-01-28T00:30:49;99718.34;;;-3.06;87.40
69980;BME280;57318;56.232;43.944;2023-01-28T00:33:15;99734.69;;;-3.01;87.08
69980;BME280;57318;56.232;43.944;2023-01-28T00:35:41;99732.13;;;-3.03;86.99
69980;BME280;57318;56.232;43.944;2023-01-28T00:38:07;99726.03;;;-3.02;86.85
69980;BME280;57318;56.232;43.944;2023-01-28T00:40:33;99730.34;;;-3.01;86.81
69980;BME280;57318;56.232;43.944;2023-01-28T00:42:59;99732.13;;;-3.03;86.76
69980;BME280;57318;56.232;43.944;2023-01-28T00:45:25;99733.81;;;-3.02;86.81
69980;BME280;57318;56.232;43.944;2023-01-28T00:47:50;99733.75;;;-2.99;86.90
69980;BME280;57318;56.232;43.944;2023-01-28T00:50:16;99727.72;;;-2.99;86.74
69980;BME280;57318;56.232;43.944;2023-01-28T00:52:42;99733.72;;;-2.97;87.05
69980;BME280;57318;56.232;43.944;2023-01-28T00:55:08;99731.06;;;-2.94;86.63
69980;BME280;57318;56.232;43.944;2023-01-28T00:57:34;99720.69;;;-2.94;86.66
69980;BME280;57318;56.232;43.944;2023-01-28T00:59:59;99732.81;;;-2.93;86.80
69980;BME280;57318;56.232;43.944;2023-01-28T01:02:25;99725.00;;;-2.93;86.86
69980;BME280;57318;56.232;43.944;2023-01-28T01:04:51;99730.91;;;-2.85;86.93
69980;BME280;57318;56.232;43.944;2023-01-28T01:07:24;99727.44;;;-2.85;87.05
69980;BME280;57318;56.232;43.944;2023-01-28T01:09:58;99724.78;;;-2.82;86.65
69980;BME280;57318;56.232;43.944;2023-01-28T01:12:25;99721.41;;;-2.86;86.67
69980;BME280;57318;56.232;43.944;2023-01-28T01:14:50;99723.94;;;-2.83;86.82
69980;BME280;57318;56.232;43.944;2023-01-28T01:17:16;99730.84;;;-2.83;86.70
69980;BME280;57318;56.232;43.944;2023-01-28T01:19:41;99722.16;;;-2.81;86.82
69980;BME280;57318;56.232;43.944;2023-01-28T01:22:07;99735.13;;;-2.79;86.73
69980;BME280;57318;56.232;43.944;2023-01-28T01:24:34;99727.31;;;-2.79;86.88
69980;BME280;57318;56.232;43.944;2023-01-28T01:26:59;99735.06;;;-2.76;86.96
69980;BME280;57318;56.232;43.944;2023-01-28T01:29:26;99731.66;;;-2.78;86.96
69980;BME280;57318;56.232;43.944;2023-01-28T01:31:51;99732.56;;;-2.81;86.64
69980;BME280;57318;56.232;43.944;2023-01-28T01:34:17;99731.72;;;-2.81;86.95
69980;BME280;57318;56.232;43.944;2023-01-28T01:36:43;99730.81;;;-2.80;86.72
69980;BME280;57318;56.232;43.944;2023-01-28T01:39:11;99727.34;;;-2.81;86.83
69980;BME280;57318;56.232;43.944;2023-01-28T01:41:37;99735.00;;;-2.73;86.69
69980;BME280;57318;56.232;43.944;2023-01-28T01:44:04;99738.47;;;-2.74;86.83
69980;BME280;57318;56.232;43.944;2023-01-28T01:46:48;99739.38;;;-2.77;86.79
69980;BME280;57318;56.232;43.944;2023-01-28T01:49:21;99741.97;;;-2.77;86.38
69980;BME280;57318;56.232;43.944;2023-01-28T01:51:50;99737.66;;;-2.76;86.30
69980;BME280;57318;56.232;43.944;2023-01-28T01:54:18;99751.41;;;-2.71;86.52
69980;BME280;57318;56.232;43.944;2023-01-28T01:56:46;99743.63;;;-2.71;86.31
69980;BME280;57318;56.232;43.944;2023-01-28T01:59:16;99745.41;;;-2.73;86.07
69980;BME280;57318;56.232;43.944;2023-01-28T02:01:44;99754.00;;;-2.69;86.26
69980;BME280;57318;56.232;43.944;2023-01-28T02:06:43;99753.94;;;-2.66;85.91
69980;BME280;57318;56.232;43.944;2023-01-28T02:09:26;99754.75;;;-2.64;85.88
69980;BME280;57318;56.232;43.944;2023-01-28T02:11:58;99749.56;;;-2.66;86.09
69980;BME280;57318;56.232;43.944;2023-01-28T02:14:27;99756.44;;;-2.62;86.12
69980;BME280;57318;56.232;43.944;2023-01-28T02:17:15;99755.56;;;-2.61;85.91
69980;BME280;57318;56.232;43.944;2023-01-28T02:19:51;99758.16;;;-2.61;85.77
69980;BME280;57318;56.232;43.944;2023-01-28T02:25:37;99758.97;;;-2.59;85.60
69980;BME280;57318;56.232;43.944;2023-01-28T02:36:23;99761.00;;;-2.73;85.69
69980;BME280;57318;56.232;43.944;2023-01-28T02:38:52;99766.22;;;-2.73;85.81
69980;BME280;57318;56.232;43.944;2023-01-28T02:41:30;99774.03;;;-2.75;86.01
69980;BME280;57318;56.232;43.944;2023-01-28T02:43:57;99774.91;;;-2.76;85.97
69980;BME280;57318;56.232;43.944;2023-01-28T02:49:33;99766.25;;;-2.75;86.25
69980;BME280;57318;56.232;43.944;2023-01-28T02:54:57;99769.63;;;-2.71;85.81
69980;BME280;57318;56.232;43.944;2023-01-28T02:57:42;99773.94;;;-2.70;86.04
69980;BME280;57318;56.232;43.944;2023-01-28T03:00:19;99783.44;;;-2.69;85.66
69980;BME280;57318;56.232;43.944;2023-01-28T03:02:50;99784.31;;;-2.68;85.79
69980;BME280;57318;56.232;43.944;2023-01-28T03:05:27;99784.28;;;-2.67;85.86
69980;BME280;57318;56.232;43.944;2023-01-28T03:07:55;99776.44;;;-2.64;85.72
69980;BME280;57318;56.232;43.944;2023-01-28T03:10:24;99773.75;;;-2.61;85.56
69980;BME280;57318;56.232;43.944;2023-01-28T03:12:53;99782.41;;;-2.60;85.48
69980;BME280;57318;56.232;43.944;2023-01-28T03:15:45;99784.09;;;-2.58;85.41
69980;BME280;57318;56.232;43.944;2023-01-28T03:18:44;99782.31;;;-2.56;85.41
69980;BME280;57318;56.232;43.944;2023-01-28T03:21:39;99781.44;;;-2.55;85.28
69980;BME280;57318;56.232;43.944;2023-01-28T03:24:30;99782.28;;;-2.54;85.18
69980;BME280;57318;56.232;43.944;2023-01-28T03:27:35;99784.88;;;-2.52;84.86
69980;BME280;57318;56.232;43.944;2023-01-28T03:30:27;99780.50;;;-2.52;84.86
69980;BME280;57318;56.232;43.944;2023-01-28T03:33:14;99779.72;;;-2.56;84.88
69980;BME280;57318;56.232;43.944;2023-01-28T03:35:59;99783.16;;;-2.55;84.47
69980;BME280;57318;56.232;43.944;2023-01-28T03:38:44;99785.69;;;-2.50;84.46
69980;BME280;57318;56.232;43.944;2023-01-28T03:41:22;99777.13;;;-2.56;84.25
69980;BME280;57318;56.232;43.944;2023-01-28T03:43:49;99784.06;;;-2.55;84.22
69980;BME280;57318;56.232;43.944;2023-01-28T03:46:15;99782.28;;;-2.54;84.02
69980;BME280;57318;56.232;43.944;2023-01-28T03:48:40;99778.84;;;-2.55;84.07
69980;BME280;57318;56.232;43.944;2023-01-28T03:51:06;99784.97;;;-2.57;84.08
69980;BME280;57318;56.232;43.944;2023-01-28T03:53:32;99786.72;;;-2.58;84.03
69980;BME280;57318;56.232;43.944;2023-01-28T03:55:57;99790.19;;;-2.59;84.23
69980;BME280;57318;56.232;43.944;2023-01-28T03:58:23;99796.25;;;-2.58;83.86
69980;BME280;57318;56.232;43.944;2023-01-28T04:00:54;99801.44;;;-2.58;83.57
69980;BME280;57318;56.232;43.944;2023-01-28T04:03:20;99798.03;;;-2.60;83.82
69980;BME280;57318;56.232;43.944;2023-01-28T04:06:04;99799.00;;;-2.66;83.31
69980;BME280;57318;56.232;43.944;2023-01-28T04:08:29;99802.44;;;-2.64;83.41
69980;BME280;57318;56.232;43.944;2023-01-28T04:10:56;99811.13;;;-2.65;83.36
69980;BME280;57318;56.232;43.944;2023-01-28T04:13:22;99821.53;;;-2.65;83.46
69980;BME280;57318;56.232;43.944;2023-01-28T04:15:48;99811.97;;;-2.64;83.62
69980;BME280;57318;56.232;43.944;2023-01-28T04:18:13;99815.44;;;-2.64;83.52
69980;BME280;57318;56.232;43.944;2023-01-28T04:20:39;99817.13;;;-2.61;83.42
69980;BME280;57318;56.232;43.944;2023-01-28T04:23:05;99810.31;;;-2.67;82.83
69980;BME280;57318;56.232;43.944;2023-01-28T04:25:32;99815.53;;;-2.68;82.52
69980;BME280;57318;56.232;43.944;2023-01-28T04:27:58;99818.16;;;-2.70;82.93
69980;BME280;57318;56.232;43.944;2023-01-28T04:30:23;99816.50;;;-2.74;82.15
69980;BME280;57318;56.232;43.944;2023-01-28T04:32:49;99820.84;;;-2.73;82.41
69980;BME280;57318;56.232;43.944;2023-01-28T04:35:15;99822.59;;;-2.75;82.27
69980;BME280;57318;56.232;43.944;2023-01-28T04:37:42;99824.34;;;-2.76;82.08
69980;BME280;57318;56.232;43.944;2023-01-28T04:40:09;99819.13;;;-2.76;82.16
69980;BME280;57318;56.232;43.944;2023-01-28T04:42:35;99827.88;;;-2.78;82.11
69980;BME280;57318;56.232;43.944;2023-01-28T04:45:00;99826.16;;;-2.79;81.91
69980;BME280;57318;56.232;43.944;2023-01-28T04:47:26;99829.72;;;-2.85;81.54
69980;BME280;57318;56.232;43.944;2023-01-28T04:49:52;99827.13;;;-2.86;81.74
69980;BME280;57318;56.232;43.944;2023-01-28T04:52:17;99828.84;;;-2.84;81.93
69980;BME280;57318;56.232;43.944;2023-01-28T04:54:43;99828.88;;;-2.85;81.49
69980;BME280;57318;56.232;43.944;2023-01-28T04:57:08;99833.19;;;-2.84;81.87
69980;BME280;57318;56.232;43.944;2023-01-28T04:59:34;99835.78;;;-2.84;81.81
69980;BME280;57318;56.232;43.944;2023-01-28T05:01:59;99840.94;;;-2.81;81.78
69980;BME280;57318;56.232;43.944;2023-01-28T05:04:25;99835.75;;;-2.81;81.53
69980;BME280;57318;56.232;43.944;2023-01-28T05:06:50;99834.84;;;-2.82;81.60
69980;BME280;57318;56.232;43.944;2023-01-28T05:09:16;99829.69;;;-2.83;81.50
69980;BME280;57318;56.232;43.944;2023-01-28T05:11:42;99840.13;;;-2.85;81.34
69980;BME280;57318;56.232;43.944;2023-01-28T05:14:07;99835.78;;;-2.84;81.52
69980;BME280;57318;56.232;43.944;2023-01-28T05:16:33;99844.41;;;-2.82;81.29
69980;BME280;57318;56.232;43.944;2023-01-28T05:19:00;99843.59;;;-2.84;81.14
69980;BME280;57318;56.232;43.944;2023-01-28T05:21:26;99846.19;;;-2.84;81.06
69980;BME280;57318;56.232;43.944;2023-01-28T05:23:52;99841.84;;;-2.84;80.98
69980;BME280;57318;56.232;43.944;2023-01-28T05:26:18;99844.50;;;-2.87;80.78
69980;BME280;57318;56.232;43.944;2023-01-28T05:28:43;99848.94;;;-2.92;80.40
69980;BME280;57318;56.232;43.944;2023-01-28T05:31:09;99848.09;;;-2.96;80.55
69980;BME280;57318;56.232;43.944;2023-01-28T05:33:35;99849.00;;;-2.95;80.36
69980;BME280;57318;56.232;43.944;2023-01-28T05:36:01;99842.91;;;-2.96;80.19
69980;BME280;57318;56.232;43.944;2023-01-28T05:38:27;99853.25;;;-2.93;80.40
69980;BME280;57318;56.232;43.944;2023-01-28T05:40:52;99860.25;;;-2.95;79.97
69980;BME280;57318;56.232;43.944;2023-01-28T05:43:18;99853.34;;;-2.97;79.80
69980;BME280;57318;56.232;43.944;2023-01-28T05:45:44;99857.72;;;-2.99;79.92
69980;BME280;57318;56.232;43.944;2023-01-28T05:48:09;99860.34;;;-3.01;79.39
69980;BME280;57318;56.232;43.944;2023-01-28T05:50:35;99856.03;;;-3.03;79.87
69980;BME280;57318;56.232;43.944;2023-01-28T05:53:04;99857.03;;;-3.09;79.43
69980;BME280;57318;56.232;43.944;2023-01-28T05:55:30;99863.94;;;-3.06;79.30
69980;BME280;57318;56.232;43.944;2023-01-28T05:57:55;99872.50;;;-3.01;79.87
69980;BME280;57318;56.232;43.944;2023-01-28T06:00:21;99872.53;;;-3.03;79.28
69980;BME280;57318;56.232;43.944;2023-01-28T06:02:47;99882.00;;;-3.00;78.97
69980;BME280;57318;56.232;43.944;2023-01-28T06:05:12;99884.75;;;-3.08;78.97
69980;BME280;57318;56.232;43.944;2023-01-28T06:07:38;99880.44;;;-3.09;78.76
69980;BME280;57318;56.232;43.944;2023-01-28T06:10:04;99877.91;;;-3.14;78.70
69980;BME280;57318;56.232;43.944;2023-01-28T06:12:30;99883.19;;;-3.18;78.64
69980;BME280;57318;56.232;43.944;2023-01-28T06:14:55;99884.03;;;-3.18;79.16
69980;BME280;57318;56.232;43.944;2023-01-28T06:17:21;99877.09;;;-3.17;78.78
69980;BME280;57318;56.232;43.944;2023-01-28T06:19:47;99873.66;;;-3.19;78.83
69980;BME280;57318;56.232;43.944;2023-01-28T06:22:13;99881.41;;;-3.16;78.74
69980;BME280;57318;56.232;43.944;2023-01-28T06:24:39;99878.69;;;-3.10;78.61
69980;BME280;57318;56.232;43.944;2023-01-28T06:27:04;99877.94;;;-3.15;78.39
69980;BME280;57318;56.232;43.944;2023-01-28T06:29:30;99878.88;;;-3.21;78.56
69980;BME280;57318;56.232;43.944;2023-01-28T06:31:55;99884.94;;;-3.20;78.35
69980;BME280;57318;56.232;43.944;2023-01-28T06:34:21;99882.31;;;-3.17;78.30
69980;BME280;57318;56.232;43.944;2023-01-28T06:36:47;99880.53;;;-3.15;78.35
69980;BME280;57318;56.232;43.944;2023-01-28T06:39:12;99895.19;;;-3.11;78.44
69980;BME280;57318;56.232;43.944;2023-01-28T06:41:38;99896.06;;;-3.11;78.32
69980;BME280;57318;56.232;43.944;2023-01-28T06:44:04;99896.84;;;-3.07;78.51
69980;BME280;57318;56.232;43.944;2023-01-28T06:46:29;99900.22;;;-3.02;78.36
69980;BME280;57318;56.232;43.944;2023-01-28T06:48:55;99901.88;;;-2.98;78.19
69980;BME280;57318;56.232;43.944;2023-01-28T06:51:20;99905.31;;;-2.96;78.07
69980;BME280;57318;56.232;43.944;2023-01-28T06:53:46;99904.44;;;-2.95;78.01
69980;BME280;57318;56.232;43.944;2023-01-28T06:56:12;99899.97;;;-2.86;78.02
69980;BME280;57318;56.232;43.944;2023-01-28T06:58:37;99905.06;;;-2.82;78.16
69980;BME280;57318;56.232;43.944;2023-01-28T07:01:03;99906.75;;;-2.78;77.90
69980;BME280;57318;56.232;43.944;2023-01-28T07:03:28;99902.34;;;-2.74;77.41
69980;BME280;57318;56.232;43.944;2023-01-28T07:05:54;99901.41;;;-2.70;77.64
69980;BME280;57318;56.232;43.944;2023-01-28T07:08:20;99913.47;;;-2.66;77.66
69980;BME280;57318;56.232;43.944;2023-01-28T07:10:46;99919.53;;;-2.65;77.35
69980;BME280;57318;56.232;43.944;2023-01-28T07:13:11;99929.97;;;-2.67;77.34
69980;BME280;57318;56.232;43.944;2023-01-28T07:15:37;99928.25;;;-2.68;77.35
69980;BME280;57318;56.232;43.944;2023-01-28T07:18:02;99934.28;;;-2.67;77.33
69980;BME280;57318;56.232;43.944;2023-01-28T07:20:28;99933.44;;;-2.68;77.30
69980;BME280;57318;56.232;43.944;2023-01-28T07:22:54;99940.41;;;-2.68;76.94
69980;BME280;57318;56.232;43.944;2023-01-28T07:25:19;99936.06;;;-2.68;77.20
69980;BME280;57318;56.232;43.944;2023-01-28T07:27:50;99943.03;;;-2.70;77.06
69980;BME280;57318;56.232;43.944;2023-01-28T07:30:17;99939.53;;;-2.69;77.01
69980;BME280;57318;56.232;43.944;2023-01-28T07:32:44;99937.72;;;-2.64;77.16
69980;BME280;57318;56.232;43.944;2023-01-28T07:35:11;99942.94;;;-2.64;76.93
69980;BME280;57318;56.232;43.944;2023-01-28T07:37:37;99942.88;;;-2.61;76.77
69980;BME280;57318;56.232;43.944;2023-01-28T07:40:02;99951.50;;;-2.59;76.64
69980;BME280;57318;56.232;43.944;2023-01-28T07:42:28;99947.13;;;-2.57;76.63
69980;BME280;57318;56.232;43.944;2023-01-28T07:44:54;99956.69;;;-2.59;76.19
69980;BME280;57318;56.232;43.944;2023-01-28T07:47:20;99961.84;;;-2.56;76.43
69980;BME280;57318;56.232;43.944;2023-01-28T07:49:45;99953.16;;;-2.55;76.26
69980;BME280;57318;56.232;43.944;2023-01-28T07:52:11;99952.31;;;-2.57;76.34
69980;BME280;57318;56.232;43.944;2023-01-28T07:54:36;99956.69;;;-2.59;76.08
69980;BME280;57318;56.232;43.944;2023-01-28T07:57:07;99952.34;;;-2.58;76.14
69980;BME280;57318;56.232;43.944;2023-01-28T07:59:34;99954.94;;;-2.58;75.84
69980;BME280;57318;56.232;43.944;2023-01-28T08:02:00;99958.47;;;-2.61;75.71
69980;BME280;57318;56.232;43.944;2023-01-28T08:04:26;99953.34;;;-2.64;76.12
69980;BME280;57318;56.232;43.944;2023-01-28T08:06:51;99954.16;;;-2.62;76.13
69980;BME280;57318;56.232;43.944;2023-01-28T08:09:17;99956.81;;;-2.65;75.80
69980;BME280;57318;56.232;43.944;2023-01-28T08:11:42;99964.56;;;-2.62;75.95
69980;BME280;57318;56.232;43.944;2023-01-28T08:14:10;99961.94;;;-2.60;75.80
69980;BME280;57318;56.232;43.944;2023-01-28T08:16:35;99958.44;;;-2.59;75.49
69980;BME280;57318;56.232;43.944;2023-01-28T08:19:01;99961.97;;;-2.62;75.41
69980;BME280;57318;56.232;43.944;2023-01-28T08:21:27;99957.56;;;-2.60;75.77
69980;BME280;57318;56.232;43.944;2023-01-28T08:23:52;99957.53;;;-2.58;75.66
69980;BME280;57318;56.232;43.944;2023-01-28T08:26:19;99956.69;;;-2.59;75.71
69980;BME280;57318;56.232;43.944;2023-01-28T08:28:44;99954.97;;;-2.60;75.56
69980;BME280;57318;56.232;43.944;2023-01-28T08:31:10;99957.53;;;-2.58;75.96
69980;BME280;57318;56.232;43.944;2023-01-28T08:33:36;99951.50;;;-2.59;75.57
69980;BME280;57318;56.232;43.944;2023-01-28T08:36:03;99955.78;;;-2.56;75.74
69980;BME280;57318;56.232;43.944;2023-01-28T08:38:29;99958.47;;;-2.61;75.25
69980;BME280;57318;56.232;43.944;2023-01-28T08:40:57;99958.44;;;-2.58;75.42
69980;BME280;57318;56.232;43.944;2023-01-28T08:43:24;99954.00;;;-2.54;75.48
69980;BME280;57318;56.232;43.944;2023-01-28T08:45:50;99954.81;;;-2.50;75.28
69980;BME280;57318;56.232;43.944;2023-01-28T08:48:17;99944.28;;;-2.44;75.54
69980;BME280;57318;56.232;43.944;2023-01-28T08:50:44;99952.06;;;-2.43;75.13
69980;BME280;57318;56.232;43.944;2023-01-28T08:53:19;99958.94;;;-2.39;74.87
69980;BME280;57318;56.232;43.944;2023-01-28T08:55:45;99955.44;;;-2.38;74.71
69980;BME280;57318;56.232;43.944;2023-01-28T08:58:13;99949.31;;;-2.35;74.22
69980;BME280;57318;56.232;43.944;2023-01-28T09:00:40;99945.84;;;-2.34;74.33
69980;BME280;57318;56.232;43.944;2023-01-28T09:03:06;99945.78;;;-2.31;74.38
69980;BME280;57318;56.232;43.944;2023-01-28T09:05:34;99945.78;;;-2.31;74.37
69980;BME280;57318;56.232;43.944;2023-01-28T09:08:01;99940.53;;;-2.28;73.86
69980;BME280;57318;56.232;43.944;2023-01-28T09:10:27;99949.09;;;-2.23;73.87
69980;BME280;57318;56.232;43.944;2023-01-28T09:12:53;99931.81;;;-2.27;73.74
69980;BME280;57318;56.232;43.944;2023-01-28T09:15:18;99937.19;;;-2.36;73.24
69980;BME280;57318;56.232;43.944;2023-01-28T09:17:44;99946.00;;;-2.43;73.52
69980;BME280;57318;56.232;43.944;2023-01-28T09:20:10;99951.22;;;-2.43;73.81
69980;BME280;57318;56.232;43.944;2023-01-28T09:22:37;99948.59;;;-2.42;74.13
69980;BME280;57318;56.232;43.944;2023-01-28T09:25:03;99948.63;;;-2.43;73.89
69980;BME280;57318;56.232;43.944;2023-01-28T09:27:31;99946.88;;;-2.43;74.00
69980;BME280;57318;56.232;43.944;2023-01-28T09:29:57;99945.97;;;-2.40;74.12
69980;BME280;57318;56.232;43.944;2023-01-28T09:32:23;99938.13;;;-2.39;74.07
69980;BME280;57318;56.232;43.944;2023-01-28T09:34:49;99942.41;;;-2.36;73.92
69980;BME280;57318;56.232;43.944;2023-01-28T09:37:15;99937.19;;;-2.36;74.00
69980;BME280;57318;56.232;43.944;2023-01-28T09:39:42;99932.00;;;-2.38;74.29
69980;BME280;57318;56.232;43.944;2023-01-28T09:47:43;99939.91;;;-2.42;73.96
69980;BME280;57318;56.232;43.944;2023-01-28T09:50:16;99933.03;;;-2.45;74.01
69980;BME280;57318;56.232;43.944;2023-01-28T09:52:43;99933.94;;;-2.47;74.05
69980;BME280;57318;56.232;43.944;2023-01-28T09:55:16;99937.50;;;-2.51;74.09
69980;BME280;57318;56.232;43.944;2023-01-28T09:57:51;99942.72;;;-2.53;74.06
69980;BME280;57318;56.232;43.944;2023-01-28T10:00:21;99943.59;;;-2.54;74.35
69980;BME280;57318;56.232;43.944;2023-01-28T10:02:59;99938.50;;;-2.59;74.23
69980;BME280;57318;56.232;43.944;2023-01-28T10:13:45;99936.81;;;-2.63;74.45
69980;BME280;57318;56.232;43.944;2023-01-28T10:16:23;99933.47;;;-2.69;74.03
69980;BME280;57318;56.232;43.944;2023-01-28T10:22:15;99924.31;;;-2.91;73.74
69980;BME280;57318;56.232;43.944;2023-01-28T10:24:54;99927.00;;;-2.95;73.80
69980;BME280;57318;56.232;43.944;2023-01-28T10:27:26;99917.53;;;-3.01;73.98
69980;BME280;57318;56.232;43.944;2023-01-28T10:29:52;99914.94;;;-3.01;73.54
69980;BME280;57318;56.232;43.944;2023-01-28T10:32:36;99914.13;;;-3.03;73.77
69980;BME280;57318;56.232;43.944;2023-01-28T10:35:03;99916.81;;;-3.09;73.33
69980;BME280;57318;56.232;43.944;2023-01-28T10:37:33;99913.38;;;-3.10;73.56
69980;BME280;57318;56.232;43.944;2023-01-28T10:40:00;99913.34;;;-3.08;74.19
69980;BME280;57318;56.232;43.944;2023-01-28T10:42:34;99921.03;;;-3.03;73.96
69980;BME280;57318;56.232;43.944;2023-01-28T10:45:05;99911.44;;;-2.98;74.04
69980;BME280;57318;56.232;43.944;2023-01-28T10:47:37;99912.31;;;-2.99;73.66
69980;BME280;57318;56.232;43.944;2023-01-28T10:50:06;99904.72;;;-3.12;73.18
69980;BME280;57318;56.232;43.944;2023-01-28T10:52:53;99910.06;;;-3.21;72.93
69980;BME280;57318;56.232;43.944;2023-01-28T10:55:19;99907.53;;;-3.26;73.32
69980;BME280;57318;56.232;43.944;2023-01-28T10:57:45;99905.84;;;-3.27;73.52
69980;BME280;57318;56.232;43.944;2023-01-28T11:02:47;99901.53;;;-3.28;73.53
69980;BME280;57318;56.232;43.944;2023-01-28T11:05:15;99899.00;;;-3.32;73.07
69980;BME280;57318;56.232;43.944;2023-01-28T11:07:41;99896.41;;;-3.32;73.34
69980;BME280;57318;56.232;43.944;2023-01-28T11:13:01;99902.44;;;-3.32;73.39
69980;BME280;57318;56.232;43.944;2023-01-28T11:15:28;99899.91;;;-3.35;73.07
69980;BME280;57318;56.232;43.944;2023-01-28T11:18:04;99897.31;;;-3.35;73.11
69980;BME280;57318;56.232;43.944;2023-01-28T11:20:42;99900.06;;;-3.44;73.22
69980;BME280;57318;56.232;43.944;2023-01-28T11:23:23;99897.53;;;-3.49;73.66
69980;BME280;57318;56.232;43.944;2023-01-28T11:26:03;99895.78;;;-3.48;74.07
69980;BME280;57318;56.232;43.944;2023-01-28T11:28:30;99897.53;;;-3.49;74.45
69980;BME280;57318;56.232;43.944;2023-01-28T11:30:58;99898.34;;;-3.45;74.39
69980;BME280;57318;56.232;43.944;2023-01-28T11:33:36;99889.66;;;-3.42;74.63
69980;BME280;57318;56.232;43.944;2023-01-28T11:38:54;99900.00;;;-3.41;74.32
69980;BME280;57318;56.232;43.944;2023-01-28T11:41:38;99899.00;;;-3.34;74.20
69980;BME280;57318;56.232;43.944;2023-01-28T11:44:23;99905.97;;;-3.34;73.72
69980;BME280;57318;56.232;43.944;2023-01-28T11:56:25;99907.84;;;-3.42;73.41
69980;BME280;57318;56.232;43.944;2023-01-28T12:09:39;99912.22;;;-3.48;73.61
69980;BME280;57318;56.232;43.944;2023-01-28T12:20:51;99901.81;;;-3.48;73.21
69980;BME280;57318;56.232;43.944;2023-01-28T12:39:43;99890.19;;;-3.81;72.00
69980;BME280;57318;56.232;43.944;2023-01-28T12:42:44;99881.69;;;-3.91;72.13
69980;BME280;57318;56.232;43.944;2023-01-28T12:45:40;99878.34;;;-3.99;72.41
69980;BME280;57318;56.232;43.944;2023-01-28T12:48:15;99887.09;;;-4.08;72.84
69980;BME280;57318;56.232;43.944;2023-01-28T12:50:50;99891.56;;;-4.19;73.00
69980;BME280;57318;56.232;43.944;2023-01-28T12:53:34;99895.03;;;-4.20;73.60
69980;BME280;57318;56.232;43.944;2023-01-28T12:56:22;99880.47;;;-4.30;73.84
69980;BME280;57318;56.232;43.944;2023-01-28T13:01:50;99886.56;;;-4.35;73.99
69980;BME280;57318;56.232;43.944;2023-01-28T13:04:41;99884.84;;;-4.37;73.63
69980;BME280;57318;56.232;43.944;2023-01-28T13:07:24;99878.03;;;-4.43;73.64
69980;BME280;57318;56.232;43.944;2023-01-28T13:12:38;99885.88;;;-4.47;73.82
69980;BME280;57318;56.232;43.944;2023-01-28T13:15:11;99881.59;;;-4.53;74.17
69980;BME280;57318;56.232;43.944;2023-01-28T13:17:38;99879.00;;;-4.55;74.30
69980;BME280;57318;56.232;43.944;2023-01-28T13:20:14;99879.91;;;-4.54;74.39
69980;BME280;57318;56.232;43.944;2023-01-28T13:22:43;99874.69;;;-4.51;74.57
69980;BME280;57318;56.232;43.944;2023-01-28T13:25:23;99871.22;;;-4.53;74.60
69980;BME280;57318;56.232;43.944;2023-01-28T13:28:21;99874.78;;;-4.60;74.41
69980;BME280;57318;56.232;43.944;2023-01-28T13:30:49;99870.50;;;-4.66;74.64
69980;BME280;57318;56.232;43.944;2023-01-28T13:33:29;99871.34;;;-4.65;74.79
69980;BME280;57318;56.232;43.944;2023-01-28T13:35:56;99873.09;;;-4.67;74.94
69980;BME280;57318;56.232;43.944;2023-01-28T13:38:23;99862.78;;;-4.71;74.95
69980;BME280;57318;56.232;43.944;2023-01-28T13:40:58;99868.72;;;-4.62;74.98
69980;BME280;57318;56.232;43.944;2023-01-28T13:43:36;99864.47;;;-4.66;75.51
69980;BME280;57318;56.232;43.944;2023-01-28T13:46:10;99858.34;;;-4.62;75.19
69980;BME280;57318;56.232;43.944;2023-01-28T13:48:49;99855.78;;;-4.65;74.96
69980;BME280;57318;56.232;43.944;2023-01-28T13:51:28;99856.69;;;-4.66;75.12
69980;BME280;57318;56.232;43.944;2023-01-28T13:54:05;99851.53;;;-4.68;74.83
69980;BME280;57318;56.232;43.944;2023-01-28T13:56:41;99852.31;;;-4.63;74.82
69980;BME280;57318;56.232;43.944;2023-01-28T14:04:36;99858.34;;;-4.62;75.25
69980;BME280;57318;56.232;43.944;2023-01-28T14:07:43;99855.72;;;-4.58;75.28
69980;BME280;57318;56.232;43.944;2023-01-28T14:10:55;99858.25;;;-4.55;75.52
69980;BME280;57318;56.232;43.944;2023-01-28T14:18:43;99852.13;;;-4.47;75.42
69980;BME280;57318;56.232;43.944;2023-01-28T14:21:12;99850.34;;;-4.44;75.48
69980;BME280;57318;56.232;43.944;2023-01-28T14:23:44;99848.56;;;-4.39;75.80
69980;BME280;57318;56.232;43.944;2023-01-28T14:26:39;99846.78;;;-4.33;75.66
69980;BME280;57318;56.232;43.944;2023-01-28T14:29:10;99843.28;;;-4.31;75.78
69980;BME280;57318;56.232;43.944;2023-01-28T14:31:38;99844.97;;;-4.28;75.55
69980;BME280;57318;56.232;43.944;2023-01-28T14:36:41;99842.38;;;-4.28;75.55
69980;BME280;57318;56.232;43.944;2023-01-28T14:39:42;99851.91;;;-4.27;75.77
69980;BME280;57318;56.232;43.944;2023-01-28T14:42:16;99844.13;;;-4.29;75.81
69980;BME280;57318;56.232;43.944;2023-01-28T14:44:43;99843.28;;;-4.31;75.38
69980;BME280;57318;56.232;43.944;2023-01-28T14:58:26;99830.38;;;-4.36;75.79
69980;BME280;57318;56.232;43.944;2023-01-28T15:00:56;99838.09;;;-4.32;75.59
69980;BME280;57318;56.232;43.944;2023-01-28T15:03:24;99824.31;;;-4.35;75.52
69980;BME280;57318;56.232;43.944;2023-01-28T15:06:19;99832.91;;;-4.32;75.51
69980;BME280;57318;56.232;43.944;2023-01-28T15:08:46;99824.22;;;-4.28;75.43